Time;durP1;ratioP1;P1;durP2;ratioP2;P2;SDS_P1;SDS_P2;PMS_P1;PMS_P2;Temp;Humidity;BMP_temperature;BMP_pressure;BME280_temperature;BME280_humidity;BME280_pressure;Samples;Min_cycle;Max_cycle;Signal;HPM_P1;HPM_P2
2023/04/04 00:02:31;;;;;;;8.30;4.15;;;22.60;35.40;;;;;;6151477;28;80492;-64
2023/04/04 00:05:34;;;;;;;7.90;4.07;;;22.60;35.50;;;;;;6152337;28;82027;-65
2023/04/04 00:08:34;;;;;;;5.25;3.60;;;22.50;35.80;;;;;;6151813;28;81075;-65
2023/04/04 00:11:35;;;;;;;6.43;3.85;;;22.50;35.70;;;;;;6151602;28;80913;-65
2023/04/04 00:14:36;;;;;;;7.75;3.97;;;22.50;35.60;;;;;;6151644;28;80359;-60
2023/04/04 00:17:36;;;;;;;6.53;3.70;;;22.50;36.00;;;;;;6150322;28;81337;-61
2023/04/04 00:20:37;;;;;;;6.57;3.67;;;22.50;36.00;;;;;;6152875;28;80344;-60
2023/04/04 00:23:37;;;;;;;6.38;3.60;;;22.50;35.90;;;;;;6150803;28;81062;-61
2023/04/04 00:26:38;;;;;;;6.88;3.60;;;22.50;35.80;;;;;;6151624;28;80855;-61
2023/04/04 00:29:38;;;;;;;7.70;3.88;;;22.50;35.70;;;;;;6156414;28;81157;-62
2023/04/04 00:32:39;;;;;;;6.53;3.75;;;22.50;35.70;;;;;;6171430;28;80426;-67
2023/04/04 00:35:40;;;;;;;6.35;3.67;;;22.50;35.60;;;;;;6151820;28;81250;-66
2023/04/04 00:38:40;;;;;;;6.40;3.70;;;22.50;35.60;;;;;;6164301;28;80299;-66
2023/04/04 00:41:41;;;;;;;7.25;3.42;;;22.50;35.60;;;;;;6150803;28;80897;-63
2023/04/04 00:44:41;;;;;;;5.15;3.50;;;22.50;35.70;;;;;;6159358;28;81227;-64
2023/04/04 00:47:42;;;;;;;6.60;4.00;;;22.50;35.60;;;;;;6138015;28;83340;-63
2023/04/04 00:50:43;;;;;;;7.63;3.38;;;22.50;35.70;;;;;;6151243;28;81441;-63
2023/04/04 00:53:43;;;;;;;5.95;3.50;;;22.50;35.70;;;;;;6133153;28;82091;-62
2023/04/04 00:56:44;;;;;;;5.88;3.05;;;22.50;35.70;;;;;;6151363;28;81038;-63
2023/04/04 00:59:44;;;;;;;5.10;3.67;;;22.40;35.70;;;;;;6132711;28;83415;-62
2023/04/04 01:02:46;;;;;;;5.00;3.08;;;22.50;36.30;;;;;;6125752;28;83782;-64
2023/04/04 01:05:47;;;;;;;5.57;3.30;;;22.40;35.50;;;;;;6149732;28;80259;-62
2023/04/04 01:08:47;;;;;;;5.68;3.15;;;22.40;35.60;;;;;;6148302;28;80508;-60
2023/04/04 01:11:48;;;;;;;6.35;3.58;;;22.40;35.70;;;;;;6130609;28;82917;-60
2023/04/04 01:14:49;;;;;;;5.72;3.42;;;22.40;35.70;;;;;;6129442;28;82802;-60
2023/04/04 01:17:49;;;;;;;6.30;3.60;;;22.40;35.60;;;;;;6148296;28;81368;-62
2023/04/04 01:20:51;;;;;;;5.22;3.03;;;22.40;35.60;;;;;;6130106;28;83266;-59
2023/04/04 01:23:52;;;;;;;6.18;3.53;;;22.40;35.70;;;;;;6151201;28;80450;-61
2023/04/04 01:26:54;;;;;;;6.05;2.95;;;22.40;35.70;;;;;;6133208;28;82625;-64
2023/04/04 01:29:54;;;;;;;5.00;3.15;;;22.40;35.70;;;;;;6132440;28;81110;-64
2023/04/04 01:32:55;;;;;;;4.78;3.10;;;22.40;35.70;;;;;;6109317;28;83564;-64
2023/04/04 01:35:56;;;;;;;6.90;3.67;;;22.40;35.90;;;;;;6109632;28;81755;-65
2023/04/04 01:38:56;;;;;;;5.15;3.20;;;22.40;36.10;;;;;;6127718;28;80557;-65
2023/04/04 01:41:57;;;;;;;5.53;3.03;;;22.40;36.20;;;;;;6110081;28;83553;-65
2023/04/04 01:44:58;;;;;;;6.00;3.40;;;22.40;36.10;;;;;;6113565;28;81760;-66
2023/04/04 01:48:04;;;;;;;6.65;3.47;;;22.40;36.20;;;;;;6087991;28;82277;-66
2023/04/04 01:51:05;;;;;;;5.68;3.70;;;22.40;36.20;;;;;;6104360;28;81331;-67
2023/04/04 01:54:06;;;;;;;3.92;2.70;;;22.40;36.20;;;;;;6115540;28;83531;-67
2023/04/04 01:57:07;;;;;;;5.72;3.42;;;22.40;36.30;;;;;;6113224;28;82999;-68
2023/04/04 02:00:08;;;;;;;6.93;3.35;;;22.40;36.20;;;;;;6112761;28;82247;-62
2023/04/04 02:03:17;;;;;;;5.22;3.00;;;22.40;36.40;;;;;;6130434;28;81375;-62
2023/04/04 02:06:18;;;;;;;5.35;2.83;;;22.40;36.50;;;;;;6130478;28;81840;-64
2023/04/04 02:09:19;;;;;;;6.03;3.03;;;22.40;36.40;;;;;;6112004;28;83110;-63
2023/04/04 02:12:21;;;;;;;5.65;3.28;;;22.30;36.30;;;;;;6113149;28;83599;-62
2023/04/04 02:15:22;;;;;;;5.60;3.03;;;22.40;36.40;;;;;;6129911;28;79968;-62
2023/04/04 02:18:23;;;;;;;7.00;3.20;;;22.30;36.50;;;;;;6116889;28;83300;-65
2023/04/04 02:21:26;;;;;;;4.22;2.58;;;22.40;36.50;;;;;;6130218;28;81346;-66
2023/04/04 02:24:26;;;;;;;4.65;2.88;;;22.40;36.60;;;;;;6112003;28;82942;-65
2023/04/04 02:27:27;;;;;;;6.18;3.28;;;22.40;36.50;;;;;;6129369;28;82800;-64
2023/04/04 02:30:28;;;;;;;6.95;3.38;;;22.40;36.60;;;;;;6126518;28;80956;-64
2023/04/04 02:33:28;;;;;;;4.30;2.75;;;22.40;36.60;;;;;;6111813;28;84042;-64
2023/04/04 02:36:31;;;;;;;4.47;2.80;;;22.40;36.70;;;;;;6112178;28;80388;-65
2023/04/04 02:39:32;;;;;;;3.53;2.58;;;22.40;36.70;;;;;;6112499;28;82979;-63
2023/04/04 02:42:33;;;;;;;4.85;3.05;;;22.40;36.70;;;;;;6123984;28;83512;-64
2023/04/04 02:45:34;;;;;;;7.38;3.13;;;22.40;36.70;;;;;;6128829;28;81592;-67
2023/04/04 02:48:43;;;;;;;5.03;2.60;;;22.40;36.70;;;;;;6119040;28;83460;-66
2023/04/04 02:51:44;;;;;;;5.90;3.22;;;22.40;36.50;;;;;;6112132;28;83220;-66
2023/04/04 02:54:45;;;;;;;5.20;3.03;;;22.40;36.40;;;;;;6112071;28;81794;-66
2023/04/04 02:57:53;;;;;;;4.22;2.92;;;22.40;36.40;;;;;;6100202;28;81680;-64
2023/04/04 03:00:54;;;;;;;5.18;3.00;;;22.40;36.50;;;;;;6111062;28;83160;-63
2023/04/04 03:03:58;;;;;;;4.72;3.10;;;22.40;36.70;;;;;;6111461;28;80424;-64
2023/04/04 03:06:59;;;;;;;5.75;3.17;;;22.30;36.40;;;;;;6128575;28;80669;-65
2023/04/04 03:09:59;;;;;;;5.20;2.85;;;22.30;37.00;;;;;;6110187;28;83400;-64
2023/04/04 03:13:00;;;;;;;5.22;2.92;;;22.30;36.70;;;;;;6128929;28;80527;-64
2023/04/04 03:16:03;;;;;;;5.88;3.28;;;22.40;36.90;;;;;;6111385;28;83421;-63
2023/04/04 03:19:11;;;;;;;5.63;3.42;;;22.40;36.20;;;;;;6102735;28;82487;-63
2023/04/04 03:22:11;;;;;;;5.22;3.50;;;22.40;35.70;;;;;;6116843;28;83714;-63
2023/04/04 03:25:12;;;;;;;7.18;3.67;;;22.50;35.20;;;;;;6127124;28;80799;-62
2023/04/04 03:28:12;;;;;;;4.68;3.13;;;22.50;35.00;;;;;;6127959;28;80720;-62
2023/04/04 03:31:14;;;;;;;5.07;3.10;;;22.60;35.10;;;;;;6132081;28;83599;-65
2023/04/04 03:34:16;;;;;;;5.40;3.22;;;22.70;35.30;;;;;;6134744;28;83621;-64
2023/04/04 03:37:16;;;;;;;7.10;3.70;;;22.70;35.10;;;;;;6151942;28;80402;-61
2023/04/04 03:40:17;;;;;;;4.97;3.50;;;22.70;35.10;;;;;;6152421;28;83337;-58
2023/04/04 03:43:17;;;;;;;7.43;3.85;;;22.70;35.00;;;;;;6152267;28;82617;-64
2023/04/04 03:46:18;;;;;;;7.30;3.92;;;22.80;34.90;;;;;;6144184;28;82326;-63
2023/04/04 03:49:20;;;;;;;10.35;5.00;;;22.80;34.50;;;;;;6150270;28;81746;-63
2023/04/04 03:52:21;;;;;;;7.05;3.97;;;22.90;34.20;;;;;;6151892;28;81814;-60
2023/04/04 03:55:21;;;;;;;11.40;4.47;;;22.90;33.70;;;;;;6153164;28;81487;-66
2023/04/04 03:58:22;;;;;;;10.02;5.22;;;22.90;33.70;;;;;;6149232;28;81518;-68
2023/04/04 04:01:24;;;;;;;8.50;4.15;;;22.90;33.70;;;;;;6149839;28;83578;-63
2023/04/04 04:04:24;;;;;;;9.30;4.25;;;22.90;33.60;;;;;;6152629;28;80880;-64
2023/04/04 04:07:25;;;;;;;10.30;4.30;;;22.90;33.50;;;;;;6152547;28;81298;-59
2023/04/04 04:10:26;;;;;;;10.95;3.90;;;23.00;33.60;;;;;;6151133;28;81172;-64
2023/04/04 04:13:28;;;;;;;6.90;4.28;;;23.00;33.30;;;;;;6149686;28;81709;-64
2023/04/04 04:16:29;;;;;;;8.68;4.75;;;23.00;33.20;;;;;;6137614;28;81906;-67
2023/04/04 04:19:31;;;;;;;8.82;4.28;;;23.00;32.80;;;;;;6128176;28;87954;-65
2023/04/04 04:22:31;;;;;;;7.85;4.07;;;23.00;33.00;;;;;;6133167;28;82326;-64
2023/04/04 04:25:32;;;;;;;7.60;3.95;;;23.00;33.40;;;;;;6147939;28;81266;-65
2023/04/04 04:28:43;;;;;;;6.53;3.70;;;22.90;33.40;;;;;;6136961;28;83565;-70
2023/04/04 04:31:48;;;;;;;9.70;3.90;;;22.90;33.30;;;;;;6144979;28;83963;-62
2023/04/04 04:34:49;;;;;;;8.30;3.25;;;22.90;33.30;;;;;;6145269;28;82574;-62
2023/04/04 04:37:54;;;;;;;8.77;4.32;;;23.00;34.50;;;;;;6144647;28;81264;-65
2023/04/04 04:40:55;;;;;;;6.70;3.35;;;23.00;34.70;;;;;;6129408;28;83330;-61
2023/04/04 04:44:01;;;;;;;6.70;3.47;;;23.00;34.60;;;;;;6146558;28;83452;-63
2023/04/04 04:47:01;;;;;;;10.35;3.95;;;23.00;34.30;;;;;;6146951;28;80603;-67
2023/04/04 04:50:02;;;;;;;6.57;3.88;;;23.00;34.30;;;;;;6111043;28;83315;-61
2023/04/04 04:53:11;;;;;;;16.08;3.92;;;22.90;34.10;;;;;;6146360;28;82740;-61
2023/04/04 04:56:11;;;;;;;13.73;4.07;;;22.90;33.80;;;;;;6147460;28;80860;-67
2023/04/04 04:59:15;;;;;;;9.00;4.47;;;22.80;33.10;;;;;;6146148;28;83389;-67
2023/04/04 05:02:17;;;;;;;10.30;4.15;;;22.80;32.90;;;;;;6146792;28;81613;-68
2023/04/04 05:05:20;;;;;;;5.90;3.83;;;22.70;32.40;;;;;;6146644;28;82923;-68
2023/04/04 05:08:21;;;;;;;7.90;4.25;;;22.60;32.30;;;;;;6146174;28;83454;-68
2023/04/04 05:11:31;;;;;;;8.82;3.50;;;22.60;32.20;;;;;;6151724;28;84679;-68
2023/04/04 05:14:32;;;;;;;6.75;4.15;;;22.50;32.20;;;;;;6150735;28;83787;-68
2023/04/04 05:17:32;;;;;;;8.70;3.70;;;22.40;32.20;;;;;;6151765;28;82299;-68
2023/04/04 05:20:37;;;;;;;6.05;3.22;;;22.40;32.40;;;;;;6137734;28;84582;-67
2023/04/04 05:23:39;;;;;;;8.93;4.05;;;22.30;32.20;;;;;;6124707;28;81177;-68
2023/04/04 05:26:41;;;;;;;8.65;3.80;;;22.30;32.20;;;;;;6146306;28;84065;-64
2023/04/04 05:29:42;;;;;;;5.07;3.50;;;22.20;32.40;;;;;;6140701;28;83278;-62
2023/04/04 05:32:43;;;;;;;6.07;3.70;;;22.20;32.50;;;;;;6126658;28;83266;-65
2023/04/04 05:35:49;;;;;;;6.55;3.83;;;22.10;32.90;;;;;;6106720;28;80861;-61
2023/04/04 05:38:51;;;;;;;8.30;4.13;;;22.00;32.70;;;;;;6107799;28;83044;-64
2023/04/04 05:41:54;;;;;;;8.50;3.72;;;22.00;32.50;;;;;;6116799;28;83811;-66
2023/04/04 05:44:55;;;;;;;8.25;4.07;;;22.00;32.40;;;;;;6050391;28;86616;-69
2023/04/04 05:47:57;;;;;;;7.13;4.07;;;21.90;32.60;;;;;;6057094;28;81217;-67
2023/04/04 05:50:58;;;;;;;8.25;4.13;;;22.00;33.10;;;;;;6077203;28;86104;-67
2023/04/04 05:54:13;;;;;;;5.05;3.45;;;22.00;33.10;;;;;;6102382;28;84187;-68
2023/04/04 05:57:14;;;;;;;11.90;4.18;;;21.90;33.30;;;;;;6098833;28;83506;-68
2023/04/04 06:00:22;;;;;;;7.05;3.80;;;21.90;33.00;;;;;;6125113;28;81735;-65
2023/04/04 06:03:34;;;;;;;9.13;4.50;;;21.90;32.90;;;;;;6094347;28;83327;-67
2023/04/04 06:06:35;;;;;;;7.28;3.92;;;21.80;32.80;;;;;;6098347;28;83572;-71
2023/04/04 06:09:37;;;;;;;6.47;3.50;;;21.80;32.90;;;;;;6095685;28;82365;-68
2023/04/04 06:12:38;;;;;;;6.72;4.00;;;21.80;32.80;;;;;;6109147;28;83072;-68
2023/04/04 06:15:42;;;;;;;4.82;3.35;;;21.80;32.70;;;;;;6105872;28;83973;-68
2023/04/04 06:18:43;;;;;;;5.55;3.28;;;21.80;32.80;;;;;;6121326;28;84171;-69
2023/04/04 06:21:43;;;;;;;7.85;4.20;;;21.80;33.00;;;;;;6091171;28;84000;-68
2023/04/04 06:24:46;;;;;;;8.32;4.28;;;21.70;32.90;;;;;;6081279;28;86647;-68
2023/04/04 06:27:47;;;;;;;6.15;4.05;;;21.70;32.90;;;;;;6101507;28;83029;-68
2023/04/04 06:30:48;;;;;;;7.72;4.10;;;21.70;33.00;;;;;;6130787;28;81235;-67
2023/04/04 06:33:52;;;;;;;7.68;3.90;;;21.70;32.90;;;;;;6145499;28;80736;-70
2023/04/04 06:36:55;;;;;;;6.00;3.80;;;21.70;33.10;;;;;;6141436;28;83143;-70
2023/04/04 06:39:59;;;;;;;5.38;3.83;;;21.70;33.00;;;;;;6140484;28;82868;-64
2023/04/04 06:43:02;;;;;;;5.03;3.30;;;21.70;33.10;;;;;;6137422;28;85398;-65
2023/04/04 06:46:11;;;;;;;9.45;4.10;;;21.70;33.10;;;;;;6141412;28;83571;-65
2023/04/04 06:49:11;;;;;;;8.10;3.80;;;21.70;33.10;;;;;;6148842;28;81032;-64
2023/04/04 06:52:12;;;;;;;8.57;3.78;;;21.60;33.00;;;;;;6128289;28;83800;-65
2023/04/04 06:55:13;;;;;;;6.72;3.78;;;21.60;33.10;;;;;;6145437;28;82418;-64
2023/04/04 06:58:13;;;;;;;8.80;4.00;;;21.60;33.00;;;;;;6138471;28;83016;-63
2023/04/04 07:01:14;;;;;;;9.68;4.40;;;21.60;33.00;;;;;;6146213;28;85352;-64
2023/04/04 07:04:15;;;;;;;8.13;4.00;;;21.60;33.00;;;;;;6145049;28;81238;-63
2023/04/04 07:07:15;;;;;;;7.65;3.95;;;21.60;33.00;;;;;;6142675;28;80750;-63
2023/04/04 07:10:16;;;;;;;7.07;3.97;;;21.60;33.10;;;;;;6113328;28;84620;-64
2023/04/04 07:13:16;;;;;;;8.70;4.10;;;21.60;33.20;;;;;;6121212;28;81807;-65
2023/04/04 07:16:17;;;;;;;9.30;4.18;;;21.60;33.70;;;;;;6133482;28;80774;-65
2023/04/04 07:19:18;;;;;;;8.18;4.18;;;21.70;33.60;;;;;;6139573;28;83878;-65
2023/04/04 07:22:18;;;;;;;7.00;3.88;;;21.70;33.60;;;;;;6146550;28;80412;-66
2023/04/04 07:25:19;;;;;;;5.90;3.33;;;21.70;33.20;;;;;;6149378;28;80541;-64
2023/04/04 07:28:19;;;;;;;8.02;4.43;;;21.80;32.80;;;;;;6142300;28;82190;-65
2023/04/04 07:31:20;;;;;;;6.10;3.83;;;21.80;32.70;;;;;;6142025;28;80515;-64
2023/04/04 07:34:21;;;;;;;5.97;3.33;;;21.80;32.70;;;;;;6142268;28;80670;-64
2023/04/04 07:37:22;;;;;;;7.38;4.15;;;21.80;32.40;;;;;;6140230;28;81467;-63
2023/04/04 07:40:22;;;;;;;8.88;4.65;;;21.90;32.80;;;;;;6146901;28;80490;-62
2023/04/04 07:43:23;;;;;;;7.50;3.55;;;21.90;32.60;;;;;;6146361;28;80591;-63
2023/04/04 07:46:23;;;;;;;11.68;3.50;;;21.90;32.30;;;;;;6149140;28;82384;-63
2023/04/04 07:49:24;;;;;;;6.32;3.38;;;21.90;32.50;;;;;;6144931;28;83651;-64
2023/04/04 07:52:24;;;;;;;10.15;4.13;;;21.90;32.90;;;;;;6144349;28;80361;-62
2023/04/04 07:55:25;;;;;;;7.38;3.83;;;21.90;32.20;;;;;;6108203;28;83404;-62
2023/04/04 07:58:25;;;;;;;7.35;3.85;;;21.90;32.10;;;;;;6141856;28;81997;-61
2023/04/04 08:01:26;;;;;;;7.85;4.03;;;21.90;32.10;;;;;;6139628;28;81675;-61
2023/04/04 08:04:26;;;;;;;6.80;3.97;;;22.00;32.10;;;;;;6145132;28;80366;-61
2023/04/04 08:07:27;;;;;;;5.70;3.63;;;22.00;32.10;;;;;;6144633;28;80649;-61
2023/04/04 08:10:28;;;;;;;6.20;3.20;;;22.00;32.10;;;;;;6133530;28;81994;-63
2023/04/04 08:13:28;;;;;;;6.07;3.35;;;22.00;32.10;;;;;;6144880;28;83735;-63
2023/04/04 08:16:30;;;;;;;6.05;3.70;;;22.10;32.10;;;;;;6148889;28;81259;-58
2023/04/04 08:19:30;;;;;;;7.55;4.03;;;22.00;32.20;;;;;;6142943;28;80873;-62
2023/04/04 08:22:31;;;;;;;5.35;3.33;;;22.00;31.80;;;;;;6142578;28;80064;-62
2023/04/04 08:25:33;;;;;;;5.57;4.00;;;21.90;31.80;;;;;;6145139;28;80639;-62
2023/04/04 08:28:34;;;;;;;8.38;4.53;;;21.90;31.60;;;;;;6136705;28;86766;-62
2023/04/04 08:31:34;;;;;;;6.50;3.95;;;21.90;31.80;;;;;;6142210;28;83545;-61
2023/04/04 08:34:35;;;;;;;9.43;4.30;;;21.80;31.50;;;;;;6145893;28;80344;-62
2023/04/04 08:37:36;;;;;;;6.63;3.80;;;21.70;31.40;;;;;;6139895;28;81069;-61
2023/04/04 08:40:37;;;;;;;9.27;4.00;;;21.60;31.20;;;;;;6140915;28;81767;-61
2023/04/04 08:43:37;;;;;;;6.85;4.00;;;21.60;31.30;;;;;;6144522;28;84491;-61
2023/04/04 08:46:38;;;;;;;10.27;3.90;;;21.50;31.30;;;;;;6154393;28;82569;-61
2023/04/04 08:49:38;;;;;;;7.10;4.13;;;21.50;31.20;;;;;;6156808;28;80831;-68
2023/04/04 08:52:39;;;;;;;5.78;3.50;;;21.60;31.40;;;;;;6149903;28;80603;-68
2023/04/04 08:55:40;;;;;;;5.93;3.63;;;21.60;31.00;;;;;;6152305;28;80989;-67
2023/04/04 08:58:40;;;;;;;5.47;3.55;;;21.60;31.10;;;;;;6123911;28;81330;-71
2023/04/04 09:01:41;;;;;;;6.20;3.35;;;21.70;31.30;;;;;;6152276;28;80985;-65
2023/04/04 09:04:41;;;;;;;5.65;3.63;;;21.70;30.90;;;;;;6149279;28;83579;-68
2023/04/04 09:07:42;;;;;;;6.75;3.17;;;21.60;30.40;;;;;;6151771;28;80819;-69
2023/04/04 09:10:43;;;;;;;9.02;3.38;;;21.60;30.40;;;;;;6154536;28;80156;-68
2023/04/04 09:13:43;;;;;;;7.65;3.45;;;21.60;30.60;;;;;;6153629;28;80342;-69
2023/04/04 09:16:44;;;;;;;4.45;3.30;;;21.50;30.20;;;;;;6153618;28;84322;-69
2023/04/04 09:19:44;;;;;;;6.50;3.20;;;21.50;30.20;;;;;;6148076;28;81315;-69
2023/04/04 09:22:45;;;;;;;6.82;2.72;;;21.50;30.10;;;;;;6156041;28;80584;-69
2023/04/04 09:25:48;;;;;;;5.30;2.55;;;21.40;30.00;;;;;;6131790;28;82401;-71
2023/04/04 09:28:49;;;;;;;6.38;2.92;;;21.50;29.80;;;;;;6152136;28;80417;-70
2023/04/04 09:31:49;;;;;;;4.63;3.03;;;21.50;29.60;;;;;;6149181;28;81027;-71
2023/04/04 09:34:50;;;;;;;5.55;2.55;;;21.50;29.30;;;;;;6149362;28;80791;-73
2023/04/04 09:37:51;;;;;;;7.13;3.03;;;21.60;29.30;;;;;;6149039;28;80551;-73
2023/04/04 09:40:52;;;;;;;4.97;2.58;;;21.60;29.30;;;;;;6150202;28;85745;-71
2023/04/04 09:43:53;;;;;;;5.25;2.50;;;21.60;29.00;;;;;;6151930;28;80890;-72
2023/04/04 09:46:54;;;;;;;7.05;2.50;;;21.60;28.40;;;;;;6153093;28;82227;-71
2023/04/04 09:49:54;;;;;;;6.40;2.80;;;21.60;28.20;;;;;;6149577;28;82003;-70
2023/04/04 09:52:55;;;;;;;5.72;2.50;;;21.60;28.30;;;;;;6151203;28;81417;-70
2023/04/04 09:55:55;;;;;;;3.40;2.60;;;21.60;28.60;;;;;;6149881;28;83402;-71
2023/04/04 09:58:56;;;;;;;5.03;2.35;;;21.60;28.20;;;;;;6144130;28;84421;-68
2023/04/04 10:01:56;;;;;;;2.83;2.03;;;21.50;28.00;;;;;;6147669;28;80564;-70
2023/04/04 10:04:57;;;;;;;6.15;2.72;;;21.50;28.80;;;;;;6150848;28;81428;-70
2023/04/04 10:07:58;;;;;;;6.03;2.55;;;21.70;28.30;;;;;;6151369;28;81897;-69
2023/04/04 10:10:58;;;;;;;3.80;2.42;;;21.90;28.20;;;;;;6130972;28;81601;-71
2023/04/04 10:13:59;;;;;;;5.00;2.58;;;22.00;28.10;;;;;;6147901;28;84873;-70
2023/04/04 10:17:00;;;;;;;4.25;2.25;;;22.20;28.10;;;;;;6064848;28;82692;-69
2023/04/04 10:20:00;;;;;;;2.83;2.28;;;22.30;28.00;;;;;;6146847;28;80976;-62
2023/04/04 10:23:01;;;;;;;3.17;2.13;;;22.40;27.90;;;;;;6149122;28;87955;-61
2023/04/04 10:26:01;;;;;;;3.00;2.20;;;22.50;27.70;;;;;;6149901;28;80312;-61
2023/04/04 10:29:03;;;;;;;3.58;2.15;;;22.50;27.70;;;;;;6143794;28;80594;-61
2023/04/04 10:32:04;;;;;;;3.08;2.28;;;22.50;27.60;;;;;;6149866;28;81701;-61
2023/04/04 10:35:04;;;;;;;7.65;2.80;;;22.60;27.60;;;;;;6149363;28;82906;-61
2023/04/04 10:38:07;;;;;;;4.47;2.20;;;22.60;27.50;;;;;;6149630;28;81236;-61
2023/04/04 10:41:07;;;;;;;2.05;1.65;;;22.60;27.90;;;;;;6145408;28;83129;-62
2023/04/04 10:44:08;;;;;;;5.53;2.15;;;22.70;27.40;;;;;;6141341;28;81910;-62
2023/04/04 10:47:09;;;;;;;6.15;1.90;;;22.70;27.40;;;;;;6145154;28;80537;-61
2023/04/04 10:50:11;;;;;;;2.80;2.10;;;22.70;27.40;;;;;;6133307;28;80261;-61
2023/04/04 10:53:11;;;;;;;4.65;2.40;;;22.70;27.50;;;;;;6145857;28;80321;-62
2023/04/04 10:56:12;;;;;;;3.10;2.20;;;22.80;27.40;;;;;;6149199;28;81928;-62
2023/04/04 10:59:12;;;;;;;4.10;2.10;;;22.80;27.50;;;;;;6146774;28;80630;-62
2023/04/04 11:02:13;;;;;;;3.03;2.00;;;22.80;27.50;;;;;;6133384;28;83992;-62
2023/04/04 11:05:14;;;;;;;2.63;2.10;;;22.80;27.40;;;;;;6145038;28;83132;-61
2023/04/04 11:08:15;;;;;;;3.08;2.42;;;22.80;27.40;;;;;;6144692;28;83162;-62
2023/04/04 11:11:16;;;;;;;3.75;2.55;;;22.80;27.40;;;;;;6145137;28;82715;-62
2023/04/04 11:14:17;;;;;;;3.72;2.40;;;22.80;27.50;;;;;;6149288;28;82004;-64
2023/04/04 11:17:18;;;;;;;3.90;2.38;;;22.90;27.50;;;;;;6148643;28;80357;-63
2023/04/04 11:20:19;;;;;;;6.03;2.42;;;22.90;27.50;;;;;;6132744;28;84458;-62
2023/04/04 11:23:20;;;;;;;2.90;2.22;;;22.90;27.40;;;;;;6148831;28;82261;-63
2023/04/04 11:26:21;;;;;;;9.82;2.05;;;22.90;27.40;;;;;;6115769;28;86804;-64
2023/04/04 11:29:22;;;;;;;6.32;2.50;;;23.00;27.30;;;;;;6147313;28;80298;-63
2023/04/04 11:32:23;;;;;;;3.20;2.20;;;23.00;27.30;;;;;;6149529;28;84264;-61
2023/04/04 11:35:23;;;;;;;4.15;2.33;;;23.00;27.30;;;;;;6132749;28;80948;-61
2023/04/04 11:38:24;;;;;;;3.17;2.20;;;23.00;27.20;;;;;;6150667;28;81456;-62
2023/04/04 11:41:24;;;;;;;5.43;2.30;;;23.00;27.10;;;;;;6149240;28;80459;-62
2023/04/04 11:44:28;;;;;;;9.85;3.40;;;23.10;27.20;;;;;;6148388;28;80197;-61
2023/04/04 11:47:29;;;;;;;5.43;3.50;;;23.10;27.30;;;;;;6150090;28;84967;-61
2023/04/04 11:50:30;;;;;;;12.05;4.65;;;23.10;27.40;;;;;;6132624;28;83674;-60
2023/04/04 11:53:31;;;;;;;15.43;4.28;;;23.10;27.70;;;;;;6149440;28;80395;-61
2023/04/04 11:56:31;;;;;;;10.55;4.15;;;23.10;28.00;;;;;;6148952;28;80635;-61
2023/04/04 11:59:33;;;;;;;7.53;4.20;;;23.00;27.70;;;;;;6147924;28;80658;-61
2023/04/04 12:02:34;;;;;;;9.02;3.33;;;23.00;27.40;;;;;;6147852;28;80681;-61
2023/04/04 12:05:34;;;;;;;8.00;3.35;;;23.00;27.10;;;;;;6147488;28;80459;-61
2023/04/04 12:08:35;;;;;;;6.00;2.38;;;23.00;27.10;;;;;;6148459;28;80978;-61
2023/04/04 12:11:35;;;;;;;7.78;3.20;;;23.00;27.20;;;;;;6147872;28;80270;-65
2023/04/04 12:14:36;;;;;;;5.55;3.10;;;23.10;27.40;;;;;;6146269;28;80808;-66
2023/04/04 12:17:37;;;;;;;5.43;3.03;;;23.10;27.70;;;;;;6147474;28;81287;-67
2023/04/04 12:20:38;;;;;;;5.80;3.17;;;23.10;27.90;;;;;;6148363;28;81363;-68
2023/04/04 12:23:38;;;;;;;9.52;3.15;;;23.20;28.00;;;;;;6151039;28;80661;-67
2023/04/04 12:26:39;;;;;;;7.25;3.05;;;23.20;28.20;;;;;;6146943;28;81074;-67
2023/04/04 12:29:40;;;;;;;3.90;2.60;;;23.30;28.30;;;;;;6144993;28;80955;-60
2023/04/04 12:32:41;;;;;;;6.35;2.72;;;23.30;28.40;;;;;;6149164;28;80501;-60
2023/04/04 12:35:41;;;;;;;5.63;3.00;;;23.30;28.50;;;;;;6149817;28;81243;-60
2023/04/04 12:38:42;;;;;;;4.53;2.55;;;23.30;28.50;;;;;;6146581;28;80498;-60
2023/04/04 12:41:43;;;;;;;5.22;2.85;;;23.30;28.70;;;;;;6145571;28;81458;-60
2023/04/04 12:44:44;;;;;;;5.35;2.60;;;23.30;28.80;;;;;;6147793;28;81697;-61
2023/04/04 12:47:45;;;;;;;4.30;2.33;;;23.40;28.90;;;;;;6148793;28;80473;-66
2023/04/04 12:50:46;;;;;;;4.97;2.85;;;23.40;28.90;;;;;;6148010;28;83426;-66
2023/04/04 12:53:46;;;;;;;5.32;2.90;;;23.40;28.90;;;;;;6148114;28;80788;-66
2023/04/04 12:56:47;;;;;;;6.07;2.58;;;23.40;29.00;;;;;;6147736;28;80572;-62
2023/04/04 12:59:48;;;;;;;3.17;2.35;;;23.40;29.10;;;;;;6146796;28;80723;-63
2023/04/04 13:02:48;;;;;;;4.63;2.20;;;23.30;29.10;;;;;;6112392;28;86834;-62
2023/04/04 13:05:49;;;;;;;5.20;2.40;;;23.30;29.20;;;;;;6143167;28;80913;-62
2023/04/04 13:08:49;;;;;;;6.13;2.88;;;23.30;29.20;;;;;;6143131;28;86184;-59
2023/04/04 13:11:50;;;;;;;9.38;2.40;;;23.30;29.40;;;;;;6147897;28;83313;-59
2023/04/04 13:14:51;;;;;;;3.65;2.53;;;23.30;29.70;;;;;;6129749;28;83012;-60
2023/04/04 13:17:51;;;;;;;5.82;2.53;;;23.30;29.70;;;;;;6146880;28;81570;-57
2023/04/04 13:20:52;;;;;;;4.40;2.20;;;23.30;29.60;;;;;;6148216;28;81400;-60
2023/04/04 13:23:53;;;;;;;3.15;1.90;;;23.30;29.60;;;;;;6144895;28;80417;-61
2023/04/04 13:26:53;;;;;;;4.38;2.10;;;23.30;29.80;;;;;;6146255;28;82521;-61
2023/04/04 13:29:54;;;;;;;6.43;2.33;;;23.30;29.90;;;;;;6151735;28;80507;-62
2023/04/04 13:32:54;;;;;;;7.40;2.60;;;23.30;30.00;;;;;;6167856;28;82854;-61
2023/04/04 13:35:56;;;;;;;7.00;2.38;;;23.30;30.10;;;;;;6143549;28;81212;-61
2023/04/04 13:38:57;;;;;;;4.30;2.28;;;23.30;30.40;;;;;;6147266;28;81396;-60
2023/04/04 13:41:57;;;;;;;5.35;2.25;;;23.30;30.70;;;;;;6148911;28;80792;-60
2023/04/04 13:44:58;;;;;;;3.58;2.20;;;23.30;31.10;;;;;;6147658;28;80705;-62
2023/04/04 13:47:58;;;;;;;4.00;2.08;;;23.30;31.20;;;;;;6153438;28;81322;-62
2023/04/04 13:50:59;;;;;;;6.03;2.55;;;23.30;31.40;;;;;;6149734;28;81750;-62
2023/04/04 13:53:59;;;;;;;3.83;2.30;;;23.30;31.20;;;;;;6142128;28;81303;-61
2023/04/04 13:57:00;;;;;;;5.85;2.10;;;23.30;31.30;;;;;;6148717;28;80101;-60
2023/04/04 14:00:00;;;;;;;8.40;2.22;;;23.30;31.50;;;;;;6143984;28;82330;-66
2023/04/04 14:03:01;;;;;;;5.35;2.25;;;23.30;31.80;;;;;;6138057;28;84593;-67
2023/04/04 14:06:01;;;;;;;7.82;2.30;;;23.30;31.80;;;;;;6142554;28;83793;-69
2023/04/04 14:09:02;;;;;;;3.75;2.45;;;23.30;31.90;;;;;;6151631;28;81268;-65
2023/04/04 14:12:02;;;;;;;5.35;2.25;;;23.30;32.00;;;;;;6150356;28;81343;-67
2023/04/04 14:15:03;;;;;;;5.43;2.13;;;23.30;32.10;;;;;;6147294;28;80242;-63
2023/04/04 14:18:03;;;;;;;4.18;2.35;;;23.30;32.40;;;;;;6148862;28;81156;-64
2023/04/04 14:21:04;;;;;;;4.65;2.40;;;23.30;32.40;;;;;;6148474;28;80751;-66
2023/04/04 14:24:04;;;;;;;4.70;2.42;;;23.30;32.50;;;;;;6151963;28;80243;-60
2023/04/04 14:27:05;;;;;;;3.25;2.28;;;23.30;33.10;;;;;;6151169;28;80581;-65
2023/04/04 14:30:05;;;;;;;2.67;1.80;;;23.30;33.30;;;;;;6147589;28;80487;-65
2023/04/04 14:33:06;;;;;;;4.45;1.70;;;23.30;33.10;;;;;;6142840;28;82328;-69
2023/04/04 14:36:06;;;;;;;4.63;2.10;;;23.30;32.70;;;;;;6131190;28;80523;-62
2023/04/04 14:39:07;;;;;;;6.00;2.38;;;23.30;32.40;;;;;;6150891;28;81626;-60
2023/04/04 14:42:08;;;;;;;4.93;2.17;;;23.30;32.20;;;;;;6146467;28;80799;-62
2023/04/04 14:45:10;;;;;;;2.47;2.00;;;23.30;32.10;;;;;;6140839;28;82597;-60
2023/04/04 14:48:10;;;;;;;4.07;2.17;;;23.30;32.10;;;;;;6126455;28;80766;-63
2023/04/04 14:51:11;;;;;;;7.10;1.92;;;23.30;32.00;;;;;;6125907;28;80467;-62
2023/04/04 14:54:11;;;;;;;3.78;2.03;;;23.30;32.00;;;;;;6125839;28;80906;-61
2023/04/04 14:57:12;;;;;;;3.50;2.50;;;23.30;31.80;;;;;;6130705;28;82474;-64
2023/04/04 15:00:14;;;;;;;4.72;2.58;;;23.30;31.80;;;;;;6150503;28;80384;-65
2023/04/04 15:03:15;;;;;;;5.75;2.50;;;23.30;31.60;;;;;;6140257;28;82700;-66
2023/04/04 15:06:15;;;;;;;5.78;2.25;;;23.30;31.40;;;;;;6126967;28;80578;-65
2023/04/04 15:09:16;;;;;;;4.93;2.30;;;23.30;31.30;;;;;;6134820;28;80888;-65
2023/04/04 15:12:16;;;;;;;5.72;2.33;;;23.30;31.40;;;;;;6121267;28;81489;-64
2023/04/04 15:15:17;;;;;;;5.20;2.83;;;23.30;31.40;;;;;;6151530;28;80668;-63
2023/04/04 15:18:17;;;;;;;3.88;2.47;;;23.30;31.60;;;;;;6152232;28;86495;-64
2023/04/04 15:21:18;;;;;;;5.80;2.90;;;23.30;31.50;;;;;;6153124;28;81683;-66
2023/04/04 15:24:19;;;;;;;5.03;2.90;;;23.30;31.40;;;;;;6145336;28;85056;-62
2023/04/04 15:27:19;;;;;;;3.97;2.70;;;23.20;31.30;;;;;;6148134;28;81849;-61
2023/04/04 15:30:20;;;;;;;9.20;2.78;;;23.20;31.20;;;;;;6146904;28;80284;-62
2023/04/04 15:33:20;;;;;;;5.88;2.55;;;23.20;31.10;;;;;;6142958;28;80368;-66
2023/04/04 15:36:25;;;;;;;6.43;3.15;;;23.20;31.00;;;;;;6139836;28;80392;-66
2023/04/04 15:39:26;;;;;;;5.65;2.70;;;23.20;31.00;;;;;;6144764;28;80495;-65
2023/04/04 15:42:26;;;;;;;4.63;2.90;;;23.20;31.00;;;;;;6152834;28;81454;-66